createdAt,value
2023-05-24T00:00:05.131Z,10.10
2023-05-24T00:02:51.528Z,10.10
2023-05-24T00:05:38.038Z,10.10
2023-05-24T00:08:26.279Z,10.10
2023-05-24T00:11:12.698Z,9.90
2023-05-24T00:13:59.060Z,9.90
2023-05-24T00:16:46.488Z,10.10
2023-05-24T00:19:33.268Z,10.10
2023-05-24T00:22:21.041Z,10.10
2023-05-24T00:25:10.130Z,10.20
2023-05-24T00:27:56.778Z,10.20
2023-05-24T00:30:43.381Z,10.10
2023-05-24T00:33:30.101Z,10.00
2023-05-24T00:36:16.640Z,9.90
2023-05-24T00:39:03.148Z,10.10
2023-05-24T00:41:51.007Z,9.80
2023-05-24T00:44:37.825Z,9.80
2023-05-24T00:47:24.582Z,9.70
2023-05-24T00:50:13.266Z,9.80
2023-05-24T00:53:03.328Z,10.00
2023-05-24T00:55:50.527Z,10.10
2023-05-24T00:58:38.686Z,10.00
2023-05-24T01:01:26.733Z,10.00
2023-05-24T01:04:13.289Z,9.90
2023-05-24T01:07:14.561Z,10.00
2023-05-24T01:10:09.558Z,9.80
2023-05-24T01:13:05.776Z,9.70
2023-05-24T01:16:00.779Z,9.70
2023-05-24T01:18:53.659Z,9.70
2023-05-24T01:21:56.322Z,9.80
2023-05-24T01:24:54.683Z,9.70
2023-05-24T01:27:44.164Z,9.60
2023-05-24T01:30:31.190Z,9.40
2023-05-24T01:33:17.999Z,9.60
2023-05-24T01:36:04.658Z,9.60
2023-05-24T01:38:52.114Z,9.20
2023-05-24T01:41:48.536Z,9.40
2023-05-24T01:44:41.104Z,9.40
2023-05-24T01:47:38.645Z,9.40
2023-05-24T01:50:29.040Z,9.20
2023-05-24T01:53:19.995Z,9.30
2023-05-24T01:56:08.330Z,9.30
2023-05-24T01:58:57.596Z,8.90
2023-05-24T02:01:46.752Z,8.80
2023-05-24T02:04:33.450Z,9.00
2023-05-24T02:07:20.367Z,9.30
2023-05-24T02:10:08.115Z,9.30
2023-05-24T02:12:54.814Z,9.40
2023-05-24T02:15:42.019Z,9.50
2023-05-24T02:18:34.673Z,9.50
2023-05-24T02:21:21.151Z,9.30
2023-05-24T02:24:08.017Z,9.30
2023-05-24T02:26:56.033Z,9.40
2023-05-24T02:29:42.904Z,9.20
2023-05-24T02:32:29.700Z,9.40
2023-05-24T02:35:17.699Z,9.30
2023-05-24T02:38:06.718Z,9.30
2023-05-24T02:40:53.184Z,9.00
2023-05-24T02:43:39.553Z,9.30
2023-05-24T02:46:25.988Z,9.00
2023-05-24T02:49:12.733Z,9.10
2023-05-24T02:52:00.892Z,9.10
2023-05-24T02:54:47.364Z,9.20
2023-05-24T02:57:34.251Z,9.00
2023-05-24T03:00:21.502Z,9.10
2023-05-24T03:03:08.666Z,9.20
2023-05-24T03:05:55.449Z,9.00
2023-05-24T03:08:43.680Z,9.00
2023-05-24T03:11:30.155Z,9.20
2023-05-24T03:14:17.515Z,9.40
2023-05-24T03:17:04.125Z,9.40
2023-05-24T03:19:51.056Z,9.50
2023-05-24T03:22:37.837Z,9.20
2023-05-24T03:25:27.383Z,9.00
2023-05-24T03:28:15.225Z,9.30
2023-05-24T03:31:02.208Z,9.40
2023-05-24T03:33:49.303Z,9.40
2023-05-24T03:36:36.676Z,9.50
2023-05-24T03:39:23.149Z,9.40
2023-05-24T03:42:11.120Z,9.50
2023-05-24T03:44:57.750Z,9.50
2023-05-24T03:47:44.709Z,9.40
2023-05-24T03:50:31.531Z,9.30
2023-05-24T03:53:17.824Z,9.50
2023-05-24T03:56:04.305Z,10.70
2023-05-24T03:58:52.589Z,9.60
2023-05-24T04:01:40.212Z,9.60
2023-05-24T04:04:26.846Z,8.90
2023-05-24T04:07:13.856Z,9.50
2023-05-24T04:10:00.437Z,9.50
2023-05-24T04:12:46.937Z,9.50
2023-05-24T04:15:35.209Z,9.60
2023-05-24T04:18:22.403Z,9.60
2023-05-24T04:21:08.804Z,9.60
2023-05-24T04:23:55.973Z,9.50
2023-05-24T04:26:42.782Z,9.70
2023-05-24T04:29:29.125Z,9.70
2023-05-24T04:32:17.986Z,9.70
2023-05-24T04:35:05.646Z,9.50
2023-05-24T04:37:52.141Z,9.70
2023-05-24T04:40:38.507Z,9.60
2023-05-24T04:43:26.366Z,9.30
2023-05-24T04:46:12.786Z,9.60
2023-05-24T04:49:02.121Z,9.50
2023-05-24T04:51:48.494Z,9.60
2023-05-24T04:54:35.334Z,9.70
2023-05-24T04:57:21.598Z,9.80
2023-05-24T05:00:10.282Z,9.60
2023-05-24T05:02:56.796Z,9.70
2023-05-24T05:05:46.552Z,9.70
2023-05-24T05:08:33.489Z,9.70
2023-05-24T05:11:20.652Z,9.70
2023-05-24T05:14:09.614Z,9.70
2023-05-24T05:16:57.000Z,9.80
2023-05-24T05:19:43.650Z,9.90
2023-05-24T05:22:31.470Z,10.00
2023-05-24T05:25:18.290Z,9.90
2023-05-24T05:28:04.679Z,10.00
2023-05-24T05:30:51.254Z,10.00
2023-05-24T05:33:37.766Z,10.20
2023-05-24T05:36:24.627Z,10.10
2023-05-24T05:39:12.483Z,10.30
2023-05-24T05:41:59.022Z,10.20
2023-05-24T05:44:46.346Z,10.30
2023-05-24T05:47:32.794Z,10.60
2023-05-24T05:50:19.677Z,10.70
2023-05-24T05:53:06.253Z,10.30
2023-05-24T05:55:54.454Z,10.70
2023-05-24T05:58:41.303Z,10.90
2023-05-24T06:01:27.706Z,10.70
2023-05-24T06:04:14.142Z,10.80
2023-05-24T06:07:01.131Z,10.80
2023-05-24T06:09:48.083Z,10.90
2023-05-24T06:12:35.851Z,10.90
2023-05-24T06:15:23.110Z,10.90
2023-05-24T06:18:09.946Z,11.10
2023-05-24T06:20:56.455Z,11.20
2023-05-24T06:23:43.002Z,11.10
2023-05-24T06:26:29.883Z,11.20
2023-05-24T06:29:20.220Z,11.20
2023-05-24T06:32:07.316Z,11.40
2023-05-24T06:34:53.956Z,11.40
2023-05-24T06:37:40.873Z,10.60
2023-05-24T06:40:27.691Z,11.60
2023-05-24T06:43:15.084Z,11.70
2023-05-24T06:46:03.803Z,11.70
2023-05-24T06:48:50.644Z,11.70
2023-05-24T06:51:38.113Z,11.90
2023-05-24T06:54:25.664Z,12.00
2023-05-24T06:57:12.726Z,11.80
2023-05-24T06:59:59.040Z,12.00
2023-05-24T07:02:46.785Z,11.80
2023-05-24T07:05:33.727Z,11.90
2023-05-24T07:08:20.022Z,11.60
2023-05-24T07:11:06.491Z,11.70
2023-05-24T07:13:53.015Z,11.80
2023-05-24T07:16:39.383Z,11.90
2023-05-24T07:19:29.544Z,11.80
2023-05-24T07:22:16.586Z,12.10
2023-05-24T07:25:03.090Z,12.20
2023-05-24T07:27:49.582Z,12.20
2023-05-24T07:30:36.094Z,12.10
2023-05-24T07:33:22.595Z,12.20
2023-05-24T07:36:10.987Z,12.30
2023-05-24T07:38:57.885Z,12.10
2023-05-24T07:41:44.341Z,12.20
2023-05-24T07:44:30.991Z,12.20
2023-05-24T07:47:17.674Z,12.10
2023-05-24T07:50:04.430Z,12.00
2023-05-24T07:52:52.457Z,12.10
2023-05-24T07:55:39.277Z,12.00
2023-05-24T07:58:25.799Z,12.10
2023-05-24T08:01:11.902Z,12.30
2023-05-24T08:03:58.684Z,12.20
2023-05-24T08:06:46.743Z,12.30
2023-05-24T08:09:38.275Z,12.30
2023-05-24T08:12:26.113Z,12.20
2023-05-24T08:15:13.321Z,12.10
2023-05-24T08:18:00.134Z,11.90
2023-05-24T08:20:47.290Z,12.00
2023-05-24T08:23:34.084Z,12.10
2023-05-24T08:26:22.527Z,12.10
2023-05-24T08:29:09.147Z,12.10
2023-05-24T08:31:55.592Z,12.10
2023-05-24T08:34:42.300Z,12.10
2023-05-24T08:37:28.712Z,12.00
2023-05-24T08:40:15.094Z,12.00
2023-05-24T08:43:03.731Z,12.00
2023-05-24T08:45:51.065Z,11.90
2023-05-24T08:48:46.129Z,11.80
2023-05-24T08:51:33.381Z,11.80
2023-05-24T08:54:21.222Z,11.90
2023-05-24T08:57:08.371Z,11.90
2023-05-24T08:59:56.647Z,12.10
2023-05-24T09:02:44.544Z,11.90
2023-05-24T09:05:31.877Z,12.10
2023-05-24T09:08:20.494Z,12.10
2023-05-24T09:11:09.451Z,12.20
2023-05-24T09:13:57.127Z,12.20
2023-05-24T09:16:45.550Z,12.30
2023-05-24T09:19:32.219Z,12.20
2023-05-24T09:22:20.268Z,12.10
2023-05-24T09:25:08.050Z,12.30
2023-05-24T09:27:55.128Z,12.30
2023-05-24T09:30:44.907Z,12.40
2023-05-24T09:33:34.171Z,12.40
2023-05-24T09:36:20.965Z,12.40
2023-05-24T09:39:09.715Z,12.40
2023-05-24T09:41:57.462Z,12.20
2023-05-24T09:44:44.443Z,12.20
2023-05-24T09:47:31.547Z,12.20
2023-05-24T09:50:20.018Z,12.30
2023-05-24T09:53:07.157Z,12.20
2023-05-24T09:55:56.104Z,12.10
2023-05-24T09:58:43.281Z,12.30
2023-05-24T10:01:31.933Z,12.30
2023-05-24T10:04:18.692Z,12.30
2023-05-24T10:07:08.060Z,12.40
2023-05-24T10:09:55.363Z,12.40
2023-05-24T10:12:46.719Z,12.40
2023-05-24T10:15:33.785Z,12.40
2023-05-24T10:18:20.400Z,12.50
2023-05-24T10:21:09.722Z,12.40
2023-05-24T10:24:00.826Z,12.40
2023-05-24T10:26:49.544Z,12.20
2023-05-24T10:29:51.189Z,12.40
2023-05-24T10:32:40.138Z,12.40
2023-05-24T10:35:27.450Z,12.50
2023-05-24T10:38:14.138Z,12.50
2023-05-24T10:41:03.526Z,12.30
2023-05-24T10:44:07.835Z,12.30
2023-05-24T10:47:12.412Z,12.40
2023-05-24T10:50:04.631Z,12.50
2023-05-24T10:52:51.310Z,12.40
2023-05-24T10:55:52.555Z,12.60
2023-05-24T10:59:00.518Z,12.70
2023-05-24T11:01:56.728Z,12.70
2023-05-24T11:04:46.991Z,12.60
2023-05-24T11:07:42.870Z,12.80
2023-05-24T11:10:32.340Z,12.80
2023-05-24T11:13:20.877Z,12.80
2023-05-24T11:16:08.971Z,12.90
2023-05-24T11:18:56.913Z,12.90
2023-05-24T11:21:45.260Z,12.90
2023-05-24T11:24:31.769Z,12.90
2023-05-24T11:27:18.547Z,13.10
2023-05-24T11:30:06.862Z,13.20
2023-05-24T11:32:55.113Z,13.10
2023-05-24T11:35:41.934Z,13.40
2023-05-24T11:38:28.325Z,13.70
2023-05-24T11:41:14.958Z,13.80
2023-05-24T11:44:01.634Z,14.00
2023-05-24T11:46:49.250Z,14.30
2023-05-24T11:49:37.488Z,14.30
2023-05-24T11:52:23.886Z,14.70
2023-05-24T11:55:17.072Z,14.80
2023-05-24T11:58:08.700Z,14.80
2023-05-24T12:00:55.143Z,14.60
2023-05-24T12:03:41.827Z,14.10
2023-05-24T12:06:37.809Z,14.30
2023-05-24T12:09:24.874Z,14.30
2023-05-24T12:12:11.580Z,14.20
2023-05-24T12:14:58.430Z,14.30
2023-05-24T12:17:45.820Z,14.40
2023-05-24T12:20:32.511Z,13.50
2023-05-24T12:23:22.760Z,14.60
2023-05-24T12:26:09.489Z,14.80
2023-05-24T12:28:58.710Z,14.90
2023-05-24T12:31:48.488Z,15.10
2023-05-24T12:34:35.809Z,15.00
2023-05-24T12:37:22.607Z,14.90
2023-05-24T12:40:20.505Z,14.50
2023-05-24T12:43:07.273Z,14.50
2023-05-24T12:45:54.513Z,14.50
2023-05-24T12:48:41.587Z,14.40
2023-05-24T12:51:28.037Z,14.30
2023-05-24T12:54:14.539Z,14.30
2023-05-24T12:57:03.107Z,14.30
2023-05-24T12:59:49.539Z,14.30
2023-05-24T13:02:38.142Z,14.40
2023-05-24T13:05:28.718Z,14.50
2023-05-24T13:08:16.367Z,14.60
2023-05-24T13:11:03.236Z,14.70
2023-05-24T13:13:50.995Z,14.70
2023-05-24T13:16:37.514Z,14.60
2023-05-24T13:19:24.264Z,14.70
2023-05-24T13:22:11.560Z,14.80
2023-05-24T13:24:58.084Z,14.80
2023-05-24T13:27:44.433Z,15.00
2023-05-24T13:30:32.822Z,15.10
2023-05-24T13:33:19.556Z,15.10
2023-05-24T13:36:07.193Z,15.20
2023-05-24T13:39:02.595Z,15.50
2023-05-24T13:42:00.936Z,15.50
2023-05-24T13:44:47.798Z,15.40
2023-05-24T13:47:40.366Z,15.30
2023-05-24T13:50:27.944Z,15.30
2023-05-24T13:53:15.248Z,15.40
2023-05-24T13:56:02.769Z,15.80
2023-05-24T13:58:49.329Z,15.70
2023-05-24T14:01:37.804Z,15.50
2023-05-24T14:04:25.856Z,15.40
2023-05-24T14:07:15.659Z,15.50
2023-05-24T14:10:02.807Z,15.30
2023-05-24T14:13:03.455Z,15.20
2023-05-24T14:15:56.851Z,15.50
2023-05-24T14:18:43.950Z,15.40
2023-05-24T14:24:19.363Z,15.70
2023-05-24T14:27:07.149Z,15.60
2023-05-24T14:29:54.145Z,15.80
2023-05-24T14:32:41.091Z,15.80
2023-05-24T14:35:27.701Z,15.90
2023-05-24T14:38:15.761Z,15.80
2023-05-24T14:41:02.565Z,15.90
2023-05-24T14:43:49.309Z,16.00
2023-05-24T14:46:36.014Z,16.30
2023-05-24T14:49:22.999Z,16.30
2023-05-24T14:52:09.982Z,15.80
2023-05-24T14:54:57.635Z,15.50
2023-05-24T14:57:44.115Z,15.80
2023-05-24T15:00:30.453Z,15.90
2023-05-24T15:03:17.064Z,16.20
2023-05-24T15:06:04.595Z,16.00
2023-05-24T15:08:52.222Z,16.10
2023-05-24T15:11:40.086Z,15.90
2023-05-24T15:14:26.655Z,16.00
2023-05-24T15:17:13.186Z,16.10
2023-05-24T15:20:00.527Z,16.20
2023-05-24T15:22:47.122Z,16.00
2023-05-24T15:25:33.520Z,16.10
2023-05-24T15:28:21.710Z,16.20
2023-05-24T15:31:09.330Z,16.10
2023-05-24T15:33:56.334Z,16.00
2023-05-24T15:36:43.317Z,15.90
2023-05-24T15:39:29.819Z,15.90
2023-05-24T15:42:16.399Z,15.70
2023-05-24T15:45:04.936Z,15.90
2023-05-24T15:47:51.954Z,15.90
2023-05-24T15:50:59.985Z,15.70
2023-05-24T15:53:45.584Z,15.90
2023-05-24T15:56:32.841Z,15.90
2023-05-24T15:59:21.512Z,16.00
2023-05-24T16:02:10.403Z,16.00
2023-05-24T16:04:57.724Z,15.90
2023-05-24T16:07:44.197Z,16.00
2023-05-24T16:10:30.803Z,16.00
2023-05-24T16:13:17.348Z,16.00
2023-05-24T16:16:04.214Z,15.90
2023-05-24T16:18:52.481Z,16.10
2023-05-24T16:21:38.982Z,16.20
2023-05-24T16:24:25.758Z,15.90
2023-05-24T16:27:12.517Z,16.30
2023-05-24T16:29:58.839Z,16.30
2023-05-24T16:32:46.368Z,16.40
2023-05-24T16:35:35.142Z,16.50
2023-05-24T16:38:21.435Z,16.50
2023-05-24T16:41:07.840Z,16.50
2023-05-24T16:43:54.300Z,16.50
2023-05-24T16:46:41.721Z,16.50
2023-05-24T16:49:28.547Z,16.80
2023-05-24T16:52:16.398Z,17.30
2023-05-24T16:55:02.928Z,17.40
2023-05-24T16:57:50.834Z,17.50
2023-05-24T17:00:37.648Z,17.50
2023-05-24T17:03:28.093Z,17.70
2023-05-24T17:06:15.648Z,17.90
2023-05-24T17:09:03.665Z,17.50
2023-05-24T17:11:51.106Z,17.10
2023-05-24T17:14:38.090Z,17.40
2023-05-24T17:17:24.546Z,17.40
2023-05-24T17:20:12.244Z,17.20
2023-05-24T17:22:58.981Z,17.50
2023-05-24T17:25:47.011Z,17.50
2023-05-24T17:28:36.696Z,17.60
2023-05-24T17:31:23.616Z,17.50
2023-05-24T17:34:10.378Z,17.30
2023-05-24T17:36:56.868Z,17.30
2023-05-24T17:39:43.119Z,17.10
2023-05-24T17:42:30.970Z,17.40
2023-05-24T17:45:17.835Z,17.50
2023-05-24T17:48:04.676Z,17.50
2023-05-24T17:50:51.602Z,17.50
2023-05-24T17:53:40.935Z,17.50
2023-05-24T17:56:27.785Z,17.30
2023-05-24T17:59:15.708Z,17.50
2023-05-24T18:02:02.471Z,17.50
2023-05-24T18:04:48.972Z,17.00
2023-05-24T18:07:36.412Z,17.20
2023-05-24T18:10:23.136Z,16.70
2023-05-24T18:13:09.791Z,16.40
2023-05-24T18:15:58.061Z,16.00
2023-05-24T18:18:44.955Z,16.20
2023-05-24T18:21:32.522Z,16.10
2023-05-24T18:24:19.141Z,16.20
2023-05-24T18:27:05.776Z,16.00
2023-05-24T18:29:52.344Z,15.90
2023-05-24T18:32:52.023Z,15.80
2023-05-24T18:35:47.381Z,16.00
2023-05-24T18:38:35.166Z,15.90
2023-05-24T18:41:22.128Z,15.70
2023-05-24T18:44:08.541Z,15.80
2023-05-24T18:46:56.376Z,15.80
2023-05-24T18:49:44.347Z,15.70
2023-05-24T18:52:31.063Z,15.60
2023-05-24T18:55:17.736Z,15.50
2023-05-24T18:58:04.529Z,15.40
2023-05-24T19:00:51.577Z,15.40
2023-05-24T19:03:39.197Z,15.30
2023-05-24T19:06:27.453Z,15.40
2023-05-24T19:09:14.424Z,15.30
2023-05-24T19:12:04.565Z,15.30
2023-05-24T19:14:51.419Z,15.20
2023-05-24T19:17:37.895Z,15.10
2023-05-24T19:20:25.403Z,15.00
2023-05-24T19:23:13.584Z,14.90
2023-05-24T19:26:00.277Z,14.90
2023-05-24T19:28:50.497Z,15.00
2023-05-24T19:31:37.208Z,15.00
2023-05-24T19:34:24.121Z,14.90
2023-05-24T19:37:10.597Z,14.90
2023-05-24T19:39:58.342Z,14.90
2023-05-24T19:42:44.917Z,14.90
2023-05-24T19:45:31.311Z,14.80
2023-05-24T19:48:17.701Z,14.90
2023-05-24T19:51:04.102Z,14.70
2023-05-24T19:53:51.106Z,14.70
2023-05-24T19:56:39.356Z,14.70
2023-05-24T19:59:26.131Z,14.60
2023-05-24T20:02:12.531Z,14.60
2023-05-24T20:04:58.976Z,14.50
2023-05-24T20:07:45.870Z,14.50
2023-05-24T20:10:35.907Z,14.40
2023-05-24T20:13:23.944Z,14.40
2023-05-24T20:16:10.430Z,14.40
2023-05-24T20:18:57.223Z,14.40
2023-05-24T20:21:43.693Z,14.40
2023-05-24T20:24:30.203Z,14.40
2023-05-24T20:27:16.836Z,14.30
2023-05-24T20:30:06.355Z,14.30
2023-05-24T20:32:53.189Z,14.90
2023-05-24T20:35:40.132Z,14.10
2023-05-24T20:38:26.721Z,14.00
2023-05-24T20:41:13.906Z,14.00
2023-05-24T20:44:00.825Z,13.90
2023-05-24T20:46:48.521Z,13.90
2023-05-24T20:49:36.624Z,13.80
2023-05-24T20:52:23.050Z,13.70
2023-05-24T20:55:11.514Z,13.60
2023-05-24T20:57:58.118Z,13.50
2023-05-24T21:00:44.505Z,13.50
2023-05-24T21:03:32.704Z,13.50
2023-05-24T21:06:20.786Z,13.50
2023-05-24T21:09:07.498Z,13.50
2023-05-24T21:11:54.052Z,13.40
2023-05-24T21:14:40.842Z,13.30
2023-05-24T21:17:27.425Z,13.30
2023-05-24T21:20:15.807Z,13.20
2023-05-24T21:23:03.222Z,13.20
2023-05-24T21:25:49.432Z,13.10
2023-05-24T21:28:35.964Z,13.00
2023-05-24T21:31:22.941Z,13.00
2023-05-24T21:34:09.710Z,13.00
2023-05-24T21:36:57.550Z,12.90
2023-05-24T21:39:44.689Z,12.90
2023-05-24T21:42:31.060Z,12.80
2023-05-24T21:45:17.539Z,12.80
2023-05-24T21:48:03.951Z,12.80
2023-05-24T21:50:50.795Z,12.70
2023-05-24T21:53:38.456Z,12.60
2023-05-24T21:56:25.379Z,12.60
2023-05-24T21:59:12.442Z,12.60
2023-05-24T22:01:58.833Z,12.50
2023-05-24T22:04:45.985Z,12.50
2023-05-24T22:07:32.642Z,12.40
2023-05-24T22:10:20.323Z,12.30
2023-05-24T22:13:07.334Z,12.30
2023-05-24T22:15:53.799Z,12.30
2023-05-24T22:18:40.290Z,12.20
2023-05-24T22:21:28.297Z,12.20
2023-05-24T22:24:14.691Z,12.10
2023-05-24T22:27:03.290Z,12.00
2023-05-24T22:29:49.703Z,12.00
2023-05-24T22:32:36.180Z,12.00
2023-05-24T22:35:22.555Z,12.00
2023-05-24T22:38:08.921Z,11.90
2023-05-24T22:40:55.384Z,11.90
2023-05-24T22:43:43.015Z,11.80
2023-05-24T22:46:29.620Z,11.80
2023-05-24T22:49:19.726Z,11.80
2023-05-24T22:52:07.020Z,11.80
2023-05-24T22:54:53.601Z,11.80
2023-05-24T22:57:40.200Z,11.70
2023-05-24T23:00:28.179Z,11.60
2023-05-24T23:03:14.860Z,11.60
2023-05-24T23:06:04.220Z,11.60
2023-05-24T23:08:51.305Z,11.60
2023-05-24T23:11:37.830Z,11.50
2023-05-24T23:14:24.206Z,11.60
2023-05-24T23:17:14.351Z,11.60
2023-05-24T23:20:01.093Z,11.50
2023-05-24T23:22:48.527Z,11.50
2023-05-24T23:25:35.677Z,11.50
2023-05-24T23:28:22.377Z,11.40
2023-05-24T23:31:09.002Z,11.40
2023-05-24T23:33:56.930Z,11.40
2023-05-24T23:36:43.551Z,11.30
2023-05-24T23:39:30.236Z,11.30
2023-05-24T23:42:16.845Z,11.40
2023-05-24T23:45:03.630Z,11.40
2023-05-24T23:47:50.162Z,11.30
2023-05-24T23:50:52.960Z,11.30
2023-05-24T23:53:40.427Z,11.30
2023-05-24T23:56:27.168Z,11.30
2023-05-24T23:59:13.988Z,11.30
